createdAt,value
2019-04-07T00:00:43.646Z,20.97
2019-04-07T00:03:10.681Z,21.00
2019-04-07T00:05:37.783Z,20.23
2019-04-07T00:08:04.715Z,20.37
2019-04-07T00:10:31.550Z,20.70
2019-04-07T00:12:58.295Z,21.30
2019-04-07T00:15:25.808Z,23.67
2019-04-07T00:17:53.211Z,19.60
2019-04-07T00:20:20.015Z,20.37
2019-04-07T00:22:46.712Z,22.00
2019-04-07T00:25:13.624Z,20.60
2019-04-07T00:27:40.486Z,20.10
2019-04-07T00:30:07.661Z,20.20
2019-04-07T00:32:34.998Z,20.30
2019-04-07T00:35:01.820Z,19.90
2019-04-07T00:37:29.479Z,21.10
2019-04-07T00:39:56.686Z,18.10
2019-04-07T00:42:23.700Z,20.43
2019-04-07T00:44:50.836Z,19.40
2019-04-07T00:47:17.642Z,20.07
2019-04-07T00:49:44.362Z,19.83
2019-04-07T00:52:12.907Z,20.60
2019-04-07T00:54:40.840Z,19.73
2019-04-07T00:57:07.634Z,19.50
2019-04-07T00:59:34.340Z,19.37
2019-04-07T01:02:01.467Z,20.33
2019-04-07T01:04:29.049Z,19.17
2019-04-07T01:06:56.029Z,19.70
2019-04-07T01:09:23.281Z,17.67
2019-04-07T01:11:50.744Z,19.47
2019-04-07T01:14:18.071Z,20.20
2019-04-07T01:16:45.663Z,22.30
2019-04-07T01:19:13.367Z,20.00
2019-04-07T01:21:40.415Z,19.30
2019-04-07T01:24:07.317Z,19.33
2019-04-07T01:26:34.111Z,20.20
2019-04-07T01:29:01.404Z,18.50
2019-04-07T01:31:28.675Z,19.93
2019-04-07T01:33:55.390Z,18.40
2019-04-07T01:36:22.591Z,18.70
2019-04-07T01:38:49.505Z,17.90
2019-04-07T01:41:25.400Z,19.70
2019-04-07T01:43:57.923Z,19.47
2019-04-07T01:46:35.403Z,19.30
2019-04-07T01:49:14.895Z,18.77
2019-04-07T01:52:00.795Z,18.53
2019-04-07T01:54:37.231Z,18.50
2019-04-07T01:57:12.092Z,18.30
2019-04-07T01:59:57.341Z,17.97
2019-04-07T02:02:42.993Z,18.67
2019-04-07T02:05:28.783Z,19.00
2019-04-07T02:08:22.059Z,18.10
2019-04-07T02:11:05.095Z,17.90
2019-04-07T02:13:58.375Z,17.57
2019-04-07T02:16:30.207Z,18.27
2019-04-07T02:19:08.769Z,18.60
2019-04-07T02:21:46.605Z,18.07
2019-04-07T02:24:17.966Z,17.57
2019-04-07T02:26:54.358Z,18.07
2019-04-07T02:29:46.561Z,18.90
2019-04-07T02:32:51.201Z,18.27
2019-04-07T02:35:28.040Z,18.00
2019-04-07T02:37:59.674Z,18.17
2019-04-07T02:40:46.866Z,17.67
2019-04-07T02:43:32.948Z,18.03
2019-04-07T02:46:33.280Z,19.47
2019-04-07T02:49:26.329Z,17.80
2019-04-07T02:52:18.943Z,20.20
2019-04-07T02:55:13.100Z,19.47
2019-04-07T02:57:58.110Z,18.60
2019-04-07T03:00:32.601Z,17.60
2019-04-07T03:03:34.915Z,18.37
2019-04-07T03:06:32.461Z,18.57
2019-04-07T03:08:51.509Z,17.97
2019-04-07T03:11:29.084Z,18.50
2019-04-07T03:14:01.806Z,18.43
2019-04-07T03:16:47.501Z,18.77
2019-04-07T03:19:37.265Z,19.20
2019-04-07T03:22:29.301Z,18.00
2019-04-07T03:25:07.126Z,18.40
2019-04-07T03:27:57.336Z,18.50
2019-04-07T03:30:54.837Z,19.33
2019-04-07T03:33:31.900Z,19.00
2019-04-07T03:36:06.792Z,19.30
2019-04-07T03:38:51.432Z,18.83
2019-04-07T03:41:29.400Z,18.87
2019-04-07T03:44:07.737Z,19.90
2019-04-07T03:46:41.304Z,19.53
2019-04-07T03:49:13.794Z,19.43
2019-04-07T03:51:49.751Z,18.63
2019-04-07T03:54:25.334Z,19.27
2019-04-07T03:57:17.569Z,18.87
2019-04-07T03:59:55.638Z,17.80
2019-04-07T04:02:31.721Z,20.17
2019-04-07T04:05:06.935Z,20.10
2019-04-07T04:07:38.723Z,20.43
2019-04-07T04:10:12.212Z,20.20
2019-04-07T04:12:59.299Z,19.73
2019-04-07T04:15:32.885Z,19.97
2019-04-07T04:18:01.083Z,20.77
2019-04-07T04:20:28.261Z,20.03
2019-04-07T04:22:54.984Z,19.90
2019-04-07T04:25:21.582Z,19.70
2019-04-07T04:27:48.621Z,20.63
2019-04-07T04:30:15.621Z,21.50
2019-04-07T04:32:42.254Z,21.63
2019-04-07T04:35:09.266Z,20.70
2019-04-07T04:37:42.558Z,20.47
2019-04-07T04:40:05.515Z,20.20
2019-04-07T04:42:33.740Z,20.17
2019-04-07T04:45:02.189Z,21.30
2019-04-07T04:47:29.033Z,20.13
2019-04-07T04:49:55.657Z,19.30
2019-04-07T04:52:22.262Z,19.80
2019-04-07T04:54:49.648Z,20.57
2019-04-07T04:57:16.453Z,20.73
2019-04-07T04:59:43.086Z,20.03
2019-04-07T05:02:10.697Z,19.37
2019-04-07T05:04:37.507Z,20.23
2019-04-07T05:07:04.278Z,20.50
2019-04-07T05:09:41.548Z,21.40
2019-04-07T05:11:59.986Z,20.77
2019-04-07T05:14:27.442Z,20.63
2019-04-07T05:16:54.807Z,20.00
2019-04-07T05:19:21.621Z,21.13
2019-04-07T05:21:48.352Z,21.70
2019-04-07T05:24:16.910Z,21.40
2019-04-07T05:26:43.732Z,23.13
2019-04-07T05:29:10.586Z,23.30
2019-04-07T05:31:38.519Z,25.50
2019-04-07T05:34:06.510Z,22.13
2019-04-07T05:36:33.315Z,22.37
2019-04-07T05:39:00.084Z,22.40
2019-04-07T05:41:27.195Z,23.07
2019-04-07T05:43:53.964Z,22.70
2019-04-07T05:46:20.577Z,22.00
2019-04-07T05:48:47.529Z,22.17
2019-04-07T05:51:15.948Z,22.50
2019-04-07T05:53:46.316Z,21.60
2019-04-07T05:56:11.133Z,22.27
2019-04-07T05:58:40.695Z,22.87
2019-04-07T06:01:06.369Z,21.40
2019-04-07T06:03:33.046Z,22.13
2019-04-07T06:06:00.472Z,22.70
2019-04-07T06:08:32.559Z,23.80
2019-04-07T06:11:00.031Z,22.47
2019-04-07T06:13:24.743Z,22.93
2019-04-07T06:15:53.112Z,22.03
2019-04-07T06:18:20.029Z,23.27
2019-04-07T06:20:46.733Z,23.20
2019-04-07T06:23:13.831Z,22.70
2019-04-07T06:25:42.386Z,23.57
2019-04-07T06:28:09.657Z,22.90
2019-04-07T06:30:37.175Z,22.10
2019-04-07T06:33:06.958Z,22.03
2019-04-07T06:35:33.614Z,23.20
2019-04-07T06:38:05.314Z,23.00
2019-04-07T06:40:29.386Z,23.80
2019-04-07T06:42:56.771Z,22.27
2019-04-07T06:45:28.275Z,23.10
2019-04-07T06:47:57.033Z,22.63
2019-04-07T06:50:49.532Z,23.10
2019-04-07T06:53:34.834Z,24.53
2019-04-07T06:56:19.755Z,23.40
2019-04-07T06:58:55.837Z,23.60
2019-04-07T07:01:41.128Z,23.53
2019-04-07T07:04:26.524Z,24.00
2019-04-07T07:07:09.918Z,23.57
2019-04-07T07:10:00.980Z,24.07
2019-04-07T07:12:47.500Z,25.90
2019-04-07T07:15:35.379Z,26.60
2019-04-07T07:18:23.451Z,24.80
2019-04-07T07:21:02.692Z,24.60
2019-04-07T07:23:33.167Z,23.97
2019-04-07T07:26:02.901Z,24.50
2019-04-07T07:28:28.521Z,24.70
2019-04-07T07:30:55.701Z,23.67
2019-04-07T07:33:23.427Z,22.80
2019-04-07T07:35:50.813Z,23.80
2019-04-07T07:38:18.079Z,23.60
2019-04-07T07:40:47.412Z,22.80
2019-04-07T07:43:13.536Z,23.67
2019-04-07T07:45:42.875Z,23.23
2019-04-07T07:48:08.653Z,23.00
2019-04-07T07:50:38.068Z,23.90
2019-04-07T07:53:04.607Z,23.13
2019-04-07T07:55:35.968Z,23.80
2019-04-07T07:58:01.016Z,22.97
2019-04-07T08:00:27.844Z,21.27
2019-04-07T08:02:54.708Z,21.97
2019-04-07T08:05:21.540Z,21.90
2019-04-07T08:07:50.201Z,23.70
2019-04-07T08:10:17.203Z,22.80
2019-04-07T08:12:43.851Z,20.67
2019-04-07T08:15:10.477Z,20.63
2019-04-07T08:17:37.658Z,22.60
2019-04-07T08:20:05.683Z,20.30
2019-04-07T08:22:39.270Z,21.90
2019-04-07T08:25:01.052Z,24.27
2019-04-07T08:27:31.718Z,20.40
2019-04-07T08:29:57.034Z,20.10
2019-04-07T08:32:26.451Z,19.70
2019-04-07T08:34:52.367Z,20.37
2019-04-07T08:37:21.805Z,18.97
2019-04-07T08:39:48.701Z,20.47
2019-04-07T08:42:18.575Z,19.20
2019-04-07T08:44:44.158Z,19.83
2019-04-07T08:47:14.555Z,18.30
2019-04-07T08:49:39.348Z,19.00
2019-04-07T08:52:09.679Z,18.87
2019-04-07T08:54:35.518Z,17.73
2019-04-07T08:57:02.266Z,18.00
2019-04-07T08:59:29.129Z,18.10
2019-04-07T09:01:55.921Z,17.57
2019-04-07T09:04:22.527Z,17.90
2019-04-07T09:06:51.240Z,18.47
2019-04-07T09:09:17.853Z,16.13
2019-04-07T09:11:44.428Z,17.93
2019-04-07T09:14:11.150Z,17.33
2019-04-07T09:16:58.137Z,17.10
2019-04-07T09:19:54.708Z,16.40
2019-04-07T09:22:44.139Z,16.20
2019-04-07T09:25:20.352Z,15.93
2019-04-07T09:27:56.179Z,16.00
2019-04-07T09:30:29.660Z,16.03
2019-04-07T09:33:10.076Z,15.77
2019-04-07T09:35:56.678Z,15.53
2019-04-07T09:38:56.959Z,14.83
2019-04-07T09:41:42.817Z,15.60
2019-04-07T09:44:18.464Z,16.97
2019-04-07T09:47:04.263Z,16.20
2019-04-07T09:49:57.316Z,15.97
2019-04-07T09:52:34.905Z,14.97
2019-04-07T09:55:14.106Z,14.93
2019-04-07T09:57:59.224Z,14.70
2019-04-07T10:00:57.193Z,15.17
2019-04-07T10:03:32.724Z,14.73
2019-04-07T10:06:19.078Z,14.73
2019-04-07T10:08:52.411Z,15.67
2019-04-07T10:11:38.489Z,15.93
2019-04-07T10:14:15.684Z,15.47
2019-04-07T10:17:00.969Z,14.30
2019-04-07T10:19:45.704Z,15.57
2019-04-07T10:22:35.083Z,14.70
2019-04-07T10:25:14.385Z,15.23
2019-04-07T10:27:58.297Z,14.40
2019-04-07T10:30:43.715Z,15.50
2019-04-07T10:33:22.563Z,14.47
2019-04-07T10:36:09.229Z,15.63
2019-04-07T10:38:43.793Z,14.53
2019-04-07T10:41:22.823Z,15.67
2019-04-07T10:44:16.074Z,15.07
2019-04-07T10:47:07.083Z,15.40
2019-04-07T10:50:09.009Z,16.37
2019-04-07T10:52:45.916Z,16.47
2019-04-07T10:55:20.639Z,15.37
2019-04-07T10:58:06.148Z,14.63
2019-04-07T11:00:49.431Z,15.77
2019-04-07T11:03:28.365Z,16.60
2019-04-07T11:06:16.066Z,14.80
2019-04-07T11:09:03.646Z,15.00
2019-04-07T11:11:53.412Z,15.30
2019-04-07T11:14:38.462Z,15.90
2019-04-07T11:17:40.819Z,16.10
2019-04-07T11:20:13.231Z,16.03
2019-04-07T11:23:15.524Z,15.40
2019-04-07T11:25:49.595Z,15.60
2019-04-07T11:28:22.591Z,16.13
2019-04-07T11:30:54.191Z,15.20
2019-04-07T11:33:26.915Z,15.63
2019-04-07T11:36:02.427Z,15.33
2019-04-07T11:38:45.160Z,16.20
2019-04-07T11:41:24.385Z,15.33
2019-04-07T11:44:12.807Z,17.27
2019-04-07T11:46:48.367Z,16.10
2019-04-07T11:49:19.828Z,16.27
2019-04-07T11:51:55.538Z,14.97
2019-04-07T11:54:27.507Z,16.90
2019-04-07T11:57:09.869Z,17.13
2019-04-07T12:00:00.027Z,16.53
2019-04-07T12:02:45.510Z,16.03
2019-04-07T12:05:31.212Z,15.53
2019-04-07T12:08:16.235Z,16.30
2019-04-07T12:11:14.183Z,17.70
2019-04-07T12:13:50.952Z,15.30
2019-04-07T12:16:28.640Z,16.37
2019-04-07T12:19:01.515Z,15.93
2019-04-07T12:21:36.957Z,15.17
2019-04-07T12:24:28.628Z,15.77
2019-04-07T12:27:06.803Z,15.13
2019-04-07T12:29:51.799Z,15.70
2019-04-07T12:32:50.844Z,13.63
2019-04-07T12:35:32.641Z,14.80
2019-04-07T12:38:12.246Z,13.57
2019-04-07T12:40:56.396Z,15.37
2019-04-07T12:43:29.126Z,15.00
2019-04-07T12:46:06.594Z,14.40
2019-04-07T12:48:45.151Z,12.50
2019-04-07T12:51:17.608Z,13.10
2019-04-07T12:53:53.599Z,13.00
2019-04-07T12:56:48.871Z,12.53
2019-04-07T12:59:24.140Z,13.80
2019-04-07T13:02:06.659Z,13.73
2019-04-07T13:04:38.284Z,13.90
2019-04-07T13:07:30.451Z,14.00
2019-04-07T13:10:07.253Z,13.03
2019-04-07T13:12:55.682Z,14.10
2019-04-07T13:15:34.651Z,14.37
2019-04-07T13:18:22.064Z,14.13
2019-04-07T13:21:02.238Z,14.53
2019-04-07T13:23:46.047Z,14.03
2019-04-07T13:26:33.245Z,14.87
2019-04-07T13:29:07.798Z,14.73
2019-04-07T13:31:43.994Z,14.27
2019-04-07T13:34:22.164Z,13.37
2019-04-07T13:37:07.979Z,13.30
2019-04-07T13:39:56.645Z,12.87
2019-04-07T13:42:33.831Z,12.67
2019-04-07T13:45:13.207Z,14.50
2019-04-07T13:47:57.904Z,13.60
2019-04-07T13:50:43.832Z,14.83
2019-04-07T13:53:27.941Z,14.80
2019-04-07T13:56:15.578Z,15.13
2019-04-07T13:58:56.608Z,13.80
2019-04-07T14:01:38.694Z,12.50
2019-04-07T14:04:24.220Z,13.10
2019-04-07T14:07:09.962Z,13.47
2019-04-07T14:09:49.565Z,12.60
2019-04-07T14:12:33.405Z,13.20
2019-04-07T14:15:07.539Z,13.30
2019-04-07T14:17:43.003Z,14.00
2019-04-07T14:20:17.533Z,13.10
2019-04-07T14:23:07.363Z,13.37
2019-04-07T14:25:49.419Z,12.70
2019-04-07T14:28:39.011Z,13.60
2019-04-07T14:31:24.046Z,13.53
2019-04-07T14:34:03.497Z,13.23
2019-04-07T14:36:48.639Z,12.83
2019-04-07T14:39:39.008Z,13.53
2019-04-07T14:42:29.230Z,13.17
2019-04-07T14:45:09.917Z,12.73
2019-04-07T14:47:42.502Z,13.10
2019-04-07T14:50:14.563Z,12.60
2019-04-07T14:53:01.955Z,12.97
2019-04-07T14:55:41.141Z,12.67
2019-04-07T14:58:22.639Z,14.83
2019-04-07T15:01:11.128Z,12.53
2019-04-07T15:03:37.755Z,13.43
2019-04-07T15:06:05.355Z,14.27
2019-04-07T15:08:37.328Z,13.50
2019-04-07T15:11:15.826Z,14.93
2019-04-07T15:13:45.453Z,16.50
2019-04-07T15:16:11.683Z,14.87
2019-04-07T15:18:38.351Z,13.50
2019-04-07T15:21:05.679Z,14.10
2019-04-07T15:23:33.452Z,15.20
2019-04-07T15:26:00.285Z,13.87
2019-04-07T15:28:29.768Z,13.63
2019-04-07T15:30:55.626Z,14.37
2019-04-07T15:33:22.394Z,13.50
2019-04-07T15:35:50.451Z,14.00
2019-04-07T15:38:17.406Z,12.80
2019-04-07T15:40:44.867Z,13.97
2019-04-07T15:43:12.503Z,13.67
2019-04-07T15:45:41.745Z,16.40
2019-04-07T15:48:08.333Z,12.53
2019-04-07T15:50:35.466Z,13.70
2019-04-07T15:53:02.755Z,14.47
2019-04-07T15:55:43.161Z,14.13
2019-04-07T15:57:58.783Z,14.27
2019-04-07T16:00:26.429Z,14.90
2019-04-07T16:02:54.806Z,14.80
2019-04-07T16:05:22.560Z,12.87
2019-04-07T16:07:53.168Z,14.73
2019-04-07T16:10:21.647Z,13.93
2019-04-07T16:12:51.268Z,14.70
2019-04-07T16:15:18.049Z,12.20
2019-04-07T16:17:47.218Z,12.93
2019-04-07T16:20:20.682Z,13.23
2019-04-07T16:22:45.834Z,13.33
2019-04-07T16:25:11.699Z,15.10
2019-04-07T16:27:39.704Z,13.27
2019-04-07T16:30:07.510Z,14.60
2019-04-07T16:32:34.196Z,15.00
2019-04-07T16:35:05.789Z,12.60
2019-04-07T16:37:33.478Z,15.20
2019-04-07T16:40:03.282Z,13.27
2019-04-07T16:42:29.775Z,12.80
2019-04-07T16:44:56.574Z,14.73
2019-04-07T16:47:25.924Z,14.40
2019-04-07T16:49:52.410Z,13.90
2019-04-07T16:52:20.382Z,15.10
2019-04-07T16:54:47.497Z,13.80
2019-04-07T16:57:15.218Z,15.10
2019-04-07T16:59:43.543Z,13.50
2019-04-07T17:02:10.436Z,13.80
2019-04-07T17:04:37.364Z,13.30
2019-04-07T17:07:07.608Z,13.20
2019-04-07T17:09:35.454Z,14.27
2019-04-07T17:12:02.392Z,15.13
2019-04-07T17:14:31.931Z,18.67
2019-04-07T17:16:57.991Z,16.20
2019-04-07T17:19:26.651Z,17.50
2019-04-07T17:21:53.434Z,14.77
2019-04-07T17:24:20.132Z,13.73
2019-04-07T17:26:47.016Z,14.70
2019-04-07T17:29:16.973Z,15.33
2019-04-07T17:31:42.161Z,13.90
2019-04-07T17:34:10.855Z,23.07
2019-04-07T17:36:39.220Z,14.60
2019-04-07T17:39:40.390Z,15.77
2019-04-07T17:42:11.927Z,15.93
2019-04-07T17:44:48.363Z,15.33
2019-04-07T17:47:31.462Z,18.83
2019-04-07T17:50:20.744Z,15.40
2019-04-07T17:53:06.415Z,17.73
2019-04-07T17:55:46.464Z,18.57
2019-04-07T17:58:32.072Z,22.70
2019-04-07T18:01:11.556Z,16.33
2019-04-07T18:03:58.359Z,18.73
2019-04-07T18:06:47.800Z,20.87
2019-04-07T18:09:34.403Z,19.60
2019-04-07T18:12:19.903Z,18.67
2019-04-07T18:15:10.342Z,16.13
2019-04-07T18:18:03.346Z,15.57
2019-04-07T18:20:39.573Z,18.17
2019-04-07T18:23:28.992Z,19.30
2019-04-07T18:26:04.229Z,15.73
2019-04-07T18:28:54.090Z,15.97
2019-04-07T18:31:28.998Z,17.70
2019-04-07T18:34:11.409Z,16.17
2019-04-07T18:36:56.637Z,21.50
2019-04-07T18:39:43.096Z,16.73
2019-04-07T18:42:29.463Z,23.90
2019-04-07T18:45:16.180Z,26.10
2019-04-07T18:47:54.827Z,23.90
2019-04-07T18:50:28.726Z,18.20
2019-04-07T18:53:14.481Z,20.73
2019-04-07T18:55:58.953Z,17.87
2019-04-07T18:58:31.011Z,25.00
2019-04-07T19:01:12.499Z,19.80
2019-04-07T19:03:53.362Z,25.70
2019-04-07T19:06:48.273Z,18.07
2019-04-07T19:09:27.568Z,18.90
2019-04-07T19:12:30.941Z,21.93
2019-04-07T19:15:15.981Z,23.60
2019-04-07T19:17:55.950Z,18.00
2019-04-07T19:20:42.072Z,18.33
2019-04-07T19:23:21.688Z,20.23
2019-04-07T19:25:56.605Z,18.53
2019-04-07T19:28:34.201Z,18.83
2019-04-07T19:31:19.282Z,18.00
2019-04-07T19:33:55.938Z,18.50
2019-04-07T19:36:46.593Z,20.10
2019-04-07T19:39:23.583Z,20.40
2019-04-07T19:42:08.784Z,17.87
2019-04-07T19:44:55.343Z,19.13
2019-04-07T19:47:32.685Z,17.20
2019-04-07T19:50:11.108Z,17.37
2019-04-07T19:52:46.447Z,16.93
2019-04-07T19:55:22.751Z,16.50
2019-04-07T19:58:09.775Z,15.63
2019-04-07T20:00:54.310Z,16.20
2019-04-07T20:03:40.266Z,16.63
2019-04-07T20:06:26.124Z,13.87
2019-04-07T20:09:19.291Z,16.23
2019-04-07T20:12:04.281Z,16.00
2019-04-07T20:14:51.328Z,16.00
2019-04-07T20:17:50.364Z,14.30
2019-04-07T20:20:40.583Z,16.13
2019-04-07T20:23:35.779Z,15.60
2019-04-07T20:26:11.940Z,14.60
2019-04-07T20:29:07.732Z,14.87
2019-04-07T20:31:56.109Z,15.67
2019-04-07T20:34:37.442Z,15.50
2019-04-07T20:37:09.617Z,15.43
2019-04-07T20:39:44.222Z,16.30
2019-04-07T20:42:29.551Z,16.00
2019-04-07T20:45:23.167Z,17.80
2019-04-07T20:48:01.565Z,17.03
2019-04-07T20:51:01.184Z,17.50
2019-04-07T20:53:52.060Z,16.60
2019-04-07T20:56:34.467Z,17.90
2019-04-07T20:59:29.067Z,18.93
2019-04-07T21:02:08.624Z,18.27
2019-04-07T21:05:00.945Z,16.87
2019-04-07T21:07:34.017Z,16.97
2019-04-07T21:10:11.204Z,17.47
2019-04-07T21:12:49.417Z,17.40
2019-04-07T21:15:41.755Z,17.90
2019-04-07T21:18:21.802Z,17.30
2019-04-07T21:20:58.944Z,16.57
2019-04-07T21:23:46.813Z,16.50
2019-04-07T21:26:42.610Z,16.27
2019-04-07T21:29:33.211Z,16.80
2019-04-07T21:32:18.805Z,15.83
2019-04-07T21:35:11.295Z,17.80
2019-04-07T21:37:49.364Z,16.70
2019-04-07T21:40:32.012Z,16.13
2019-04-07T21:43:11.745Z,15.20
2019-04-07T21:45:57.208Z,16.30
2019-04-07T21:48:49.527Z,16.30
2019-04-07T21:51:41.058Z,17.00
2019-04-07T21:54:21.534Z,16.37
2019-04-07T21:57:04.417Z,17.30
2019-04-07T21:59:39.991Z,16.10
2019-04-07T22:02:13.583Z,16.23
2019-04-07T22:04:54.640Z,16.87
2019-04-07T22:07:44.002Z,17.00
2019-04-07T22:10:11.828Z,16.20
2019-04-07T22:12:38.589Z,17.60
2019-04-07T22:15:11.650Z,16.37
2019-04-07T22:17:37.243Z,16.93
2019-04-07T22:20:05.240Z,16.37
2019-04-07T22:22:31.881Z,16.63
2019-04-07T22:24:58.498Z,15.83
2019-04-07T22:27:27.307Z,15.80
2019-04-07T22:29:53.592Z,16.07
2019-04-07T22:32:22.146Z,16.90
2019-04-07T22:34:48.821Z,17.00
2019-04-07T22:37:17.613Z,17.50
2019-04-07T22:39:45.528Z,17.90
2019-04-07T22:42:16.691Z,17.53
2019-04-07T22:44:43.141Z,17.17
2019-04-07T22:47:12.056Z,17.07
2019-04-07T22:49:38.766Z,15.97
2019-04-07T22:52:06.417Z,17.43
2019-04-07T22:54:33.033Z,16.57
2019-04-07T22:57:00.637Z,16.67
2019-04-07T22:59:28.053Z,17.10
2019-04-07T23:01:55.632Z,17.20
2019-04-07T23:04:25.767Z,18.37
2019-04-07T23:06:52.542Z,16.87
2019-04-07T23:09:19.139Z,18.23
2019-04-07T23:11:46.130Z,17.57
2019-04-07T23:14:13.603Z,18.87
2019-04-07T23:16:40.403Z,19.20
2019-04-07T23:19:07.127Z,19.30
2019-04-07T23:21:34.104Z,17.97
2019-04-07T23:24:01.246Z,19.10
2019-04-07T23:26:28.065Z,18.27
2019-04-07T23:28:54.697Z,18.17
2019-04-07T23:31:21.579Z,17.90
2019-04-07T23:33:48.220Z,18.43
2019-04-07T23:36:14.866Z,18.37
2019-04-07T23:38:41.580Z,17.83
2019-04-07T23:41:08.300Z,18.80
2019-04-07T23:43:35.542Z,17.53
2019-04-07T23:46:02.717Z,18.60
2019-04-07T23:48:29.298Z,17.87
2019-04-07T23:50:56.149Z,18.40
2019-04-07T23:54:00.163Z,18.77
2019-04-07T23:56:27.338Z,18.00
2019-04-07T23:58:54.260Z,18.20
